Time;durP1;ratioP1;P1;durP2;ratioP2;P2;SDS_P1;SDS_P2;PMS_P1;PMS_P2;Temp;Humidity;BMP_temperature;BMP_pressure;BME280_temperature;BME280_humidity;BME280_pressure;Samples;Min_cycle;Max_cycle;Signal;HPM_P1;HPM_P2
2023/06/27 00:01:18;;;;;;;3.45;1.40;;;;;;;;;;5032644;28;20206;-81
2023/06/27 00:03:45;;;;;;;3.58;1.45;;;;;;;;;;5032110;28;20246;-81
2023/06/27 00:06:19;;;;;;;1.35;1.25;;;;;;;;;;5032400;28;20268;-81
2023/06/27 00:08:46;;;;;;;2.25;1.40;;;;;;;;;;5031867;28;20715;-81
2023/06/27 00:11:13;;;;;;;3.65;1.63;;;;;;;;;;5032440;28;20215;-81
2023/06/27 00:13:42;;;;;;;1.77;1.55;;;;;;;;;;5031744;28;20242;-80
2023/06/27 00:16:12;;;;;;;3.22;1.25;;;;;;;;;;5032285;28;20202;-81
2023/06/27 00:18:40;;;;;;;2.33;1.38;;;;;;;;;;5031774;28;20303;-81
2023/06/27 00:21:07;;;;;;;3.08;1.60;;;;;;;;;;5032096;28;20210;-81
2023/06/27 00:23:34;;;;;;;1.55;1.45;;;;;;;;;;5031675;28;20234;-81
2023/06/27 00:26:02;;;;;;;2.70;1.23;;;;;;;;;;5032255;28;20203;-81
2023/06/27 00:28:29;;;;;;;2.00;1.30;;;;;;;;;;5031420;28;20265;-81
2023/06/27 00:30:57;;;;;;;4.03;1.33;;;;;;;;;;5032289;28;20230;-81
2023/06/27 00:33:25;;;;;;;2.80;1.40;;;;;;;;;;5031383;28;20242;-81
2023/06/27 00:35:52;;;;;;;3.25;1.90;;;;;;;;;;5031938;28;20210;-81
2023/06/27 00:38:19;;;;;;;1.50;1.40;;;;;;;;;;5031663;28;20203;-81
2023/06/27 00:40:46;;;;;;;3.05;1.20;;;;;;;;;;5031938;28;20210;-81
2023/06/27 00:43:13;;;;;;;1.98;1.38;;;;;;;;;;5031724;28;20226;-80
2023/06/27 00:45:40;;;;;;;2.03;1.40;;;;;;;;;;5031820;28;20737;-81
2023/06/27 00:48:08;;;;;;;1.52;1.27;;;;;;;;;;5031279;28;20202;-81
2023/06/27 00:50:37;;;;;;;1.70;1.60;;;;;;;;;;5031584;28;20230;-81
2023/06/27 00:53:04;;;;;;;3.33;1.52;;;;;;;;;;5031838;28;20231;-81
2023/06/27 00:55:32;;;;;;;2.05;1.85;;;;;;;;;;5031297;28;20773;-81
2023/06/27 00:58:00;;;;;;;2.30;1.63;;;;;;;;;;5031547;28;20664;-81
2023/06/27 01:00:27;;;;;;;2.90;1.52;;;;;;;;;;5038208;28;20313;-81
2023/06/27 01:02:55;;;;;;;1.85;1.50;;;;;;;;;;5051446;28;20229;-81
2023/06/27 01:05:22;;;;;;;3.70;1.30;;;;;;;;;;5042170;28;20724;-81
2023/06/27 01:07:52;;;;;;;4.18;1.65;;;;;;;;;;5036361;28;20215;-81
2023/06/27 01:10:24;;;;;;;2.58;1.40;;;;;;;;;;5051060;28;20244;-81
2023/06/27 01:12:55;;;;;;;3.92;1.60;;;;;;;;;;5037826;28;20234;-81
2023/06/27 01:15:22;;;;;;;3.63;1.92;;;;;;;;;;5030927;28;20648;-81
2023/06/27 01:17:50;;;;;;;3.33;1.48;;;;;;;;;;5031403;28;20265;-81
2023/06/27 01:20:17;;;;;;;2.67;1.80;;;;;;;;;;5031066;28;20230;-80
2023/06/27 01:22:48;;;;;;;2.45;1.52;;;;;;;;;;5031606;28;20265;-81
2023/06/27 01:25:17;;;;;;;4.60;1.45;;;;;;;;;;5030975;28;20234;-81
2023/06/27 01:27:44;;;;;;;4.20;1.73;;;;;;;;;;5031200;28;20199;-81
2023/06/27 01:30:11;;;;;;;3.58;1.58;;;;;;;;;;5030839;28;20261;-80
2023/06/27 01:32:41;;;;;;;2.60;1.35;;;;;;;;;;5031141;28;20231;-81
2023/06/27 01:35:11;;;;;;;2.47;1.38;;;;;;;;;;5030854;28;20604;-81
2023/06/27 01:37:40;;;;;;;3.13;1.63;;;;;;;;;;5030948;28;20298;-81
2023/06/27 01:40:10;;;;;;;3.70;1.70;;;;;;;;;;5030476;28;20234;-81
2023/06/27 01:42:41;;;;;;;4.55;1.60;;;;;;;;;;5032046;28;20230;-81
2023/06/27 01:45:09;;;;;;;3.35;1.52;;;;;;;;;;5034770;28;20230;-81
2023/06/27 01:47:37;;;;;;;2.47;1.42;;;;;;;;;;5035057;28;20214;-81
2023/06/27 01:50:04;;;;;;;2.85;1.55;;;;;;;;;;5034665;28;20237;-81
2023/06/27 01:52:31;;;;;;;3.45;1.58;;;;;;;;;;5035075;28;20227;-81
2023/06/27 01:54:59;;;;;;;1.48;1.38;;;;;;;;;;5034451;28;20242;-81
2023/06/27 01:57:26;;;;;;;1.75;1.55;;;;;;;;;;5034977;28;20210;-81
2023/06/27 01:59:55;;;;;;;2.05;1.58;;;;;;;;;;5034347;28;20230;-81
2023/06/27 02:02:22;;;;;;;2.97;1.60;;;;;;;;;;5034721;28;20230;-81
2023/06/27 02:04:49;;;;;;;1.42;1.33;;;;;;;;;;5034325;28;20241;-81
2023/06/27 02:07:16;;;;;;;1.80;1.55;;;;;;;;;;5034689;28;20206;-81
2023/06/27 02:09:43;;;;;;;1.35;1.25;;;;;;;;;;5034150;28;20790;-81
2023/06/27 02:12:11;;;;;;;4.07;1.50;;;;;;;;;;5034971;28;20237;-81
2023/06/27 02:14:39;;;;;;;1.65;1.55;;;;;;;;;;5034381;28;20230;-81
2023/06/27 02:17:07;;;;;;;2.28;1.23;;;;;;;;;;5034317;28;20589;-81
2023/06/27 02:19:34;;;;;;;1.65;1.38;;;;;;;;;;5034066;28;20230;-81
2023/06/27 02:22:02;;;;;;;3.25;1.40;;;;;;;;;;5034519;28;20223;-81
2023/06/27 02:24:29;;;;;;;2.47;1.30;;;;;;;;;;5033937;28;20716;-81
2023/06/27 02:26:56;;;;;;;1.50;1.40;;;;;;;;;;5034375;28;20230;-81
2023/06/27 02:29:23;;;;;;;1.92;1.52;;;;;;;;;;5034016;28;20242;-81
2023/06/27 02:31:50;;;;;;;3.03;1.63;;;;;;;;;;5034393;28;20258;-81
2023/06/27 02:34:19;;;;;;;2.83;2.00;;;;;;;;;;5033871;28;20242;-80
2023/06/27 02:36:46;;;;;;;3.30;1.67;;;;;;;;;;5034128;28;20301;-82
2023/06/27 02:39:13;;;;;;;1.60;1.50;;;;;;;;;;5033733;28;20242;-81
2023/06/27 02:41:40;;;;;;;1.42;1.33;;;;;;;;;;5034488;28;20210;-81
2023/06/27 02:44:07;;;;;;;3.80;1.73;;;;;;;;;;5033908;28;20238;-81
2023/06/27 02:46:34;;;;;;;3.15;1.55;;;;;;;;;;5033874;28;20210;-81
2023/06/27 02:49:01;;;;;;;2.28;1.80;;;;;;;;;;5033671;28;20235;-81
2023/06/27 02:51:29;;;;;;;1.50;1.40;;;;;;;;;;5033791;28;20305;-81
2023/06/27 02:53:57;;;;;;;4.07;1.95;;;;;;;;;;5032453;28;20237;-81
2023/06/27 02:56:24;;;;;;;2.80;1.50;;;;;;;;;;5033817;28;20242;-81
2023/06/27 02:58:51;;;;;;;3.40;1.58;;;;;;;;;;5033190;28;20237;-81
2023/06/27 03:01:18;;;;;;;1.83;1.70;;;;;;;;;;5033743;28;20692;-81
2023/06/27 03:03:45;;;;;;;3.20;1.60;;;;;;;;;;5033069;28;20321;-81
2023/06/27 03:06:13;;;;;;;2.80;1.60;;;;;;;;;;5033960;28;20202;-81
2023/06/27 03:08:41;;;;;;;1.40;1.30;;;;;;;;;;5033120;28;20305;-81
2023/06/27 03:11:08;;;;;;;1.80;1.63;;;;;;;;;;5033618;28;20715;-81
2023/06/27 03:13:36;;;;;;;1.67;1.57;;;;;;;;;;5033129;28;20261;-81
2023/06/27 03:16:03;;;;;;;3.10;1.47;;;;;;;;;;5033857;28;20203;-81
2023/06/27 03:18:30;;;;;;;2.77;1.53;;;;;;;;;;5033097;28;20237;-81
2023/06/27 03:20:57;;;;;;;3.60;1.90;;;;;;;;;;5033437;28;20198;-81
2023/06/27 03:23:24;;;;;;;2.57;1.60;;;;;;;;;;5032854;28;20240;-81
2023/06/27 03:25:52;;;;;;;4.57;1.70;;;;;;;;;;5033441;28;20207;-81
2023/06/27 03:28:19;;;;;;;2.13;1.57;;;;;;;;;;5032878;28;20203;-82
2023/06/27 03:30:47;;;;;;;6.43;2.00;;;;;;;;;;5033179;28;20227;-81
2023/06/27 03:33:14;;;;;;;1.73;1.63;;;;;;;;;;5033033;28;20234;-81
2023/06/27 03:35:41;;;;;;;1.80;1.70;;;;;;;;;;5032958;28;20290;-81
2023/06/27 03:38:08;;;;;;;2.77;1.70;;;;;;;;;;5032540;28;20206;-82
2023/06/27 03:40:35;;;;;;;2.10;1.90;;;;;;;;;;5032842;28;20202;-81
2023/06/27 03:43:04;;;;;;;2.17;1.97;;;;;;;;;;5032388;28;20221;-82
2023/06/27 03:45:31;;;;;;;2.00;1.80;;;;;;;;;;5033011;28;20207;-81
2023/06/27 03:47:58;;;;;;;2.40;1.50;;;;;;;;;;5032734;28;20665;-81
2023/06/27 03:50:25;;;;;;;2.60;1.80;;;;;;;;;;5032064;28;20234;-81
2023/06/27 03:52:52;;;;;;;4.00;1.90;;;;;;;;;;5033054;28;20226;-81
2023/06/27 03:55:20;;;;;;;2.13;1.90;;;;;;;;;;5032120;28;20239;-81
2023/06/27 03:57:48;;;;;;;2.73;1.67;;;;;;;;;;5032784;28;20218;-81
2023/06/27 04:00:17;;;;;;;3.60;1.77;;;;;;;;;;5032307;28;20309;-81
2023/06/27 04:02:44;;;;;;;1.80;1.70;;;;;;;;;;5032449;28;20235;-81
2023/06/27 04:05:11;;;;;;;3.13;1.70;;;;;;;;;;5031667;28;20238;-81
2023/06/27 04:07:40;;;;;;;1.67;1.53;;;;;;;;;;5032192;28;20685;-81
2023/06/27 04:10:07;;;;;;;2.93;1.93;;;;;;;;;;5031937;28;20243;-81
2023/06/27 04:12:35;;;;;;;2.97;2.20;;;;;;;;;;5032458;28;20267;-81
2023/06/27 04:15:02;;;;;;;4.70;2.03;;;;;;;;;;5031862;28;20704;-81
2023/06/27 04:17:31;;;;;;;4.67;1.97;;;;;;;;;;5032094;28;20203;-81
2023/06/27 04:19:58;;;;;;;1.80;1.70;;;;;;;;;;5031801;28;20230;-82
2023/06/27 04:22:25;;;;;;;7.43;2.17;;;;;;;;;;5032027;28;20231;-81
2023/06/27 04:24:52;;;;;;;2.77;1.93;;;;;;;;;;5031864;28;20238;-82
2023/06/27 04:27:19;;;;;;;4.43;1.93;;;;;;;;;;5032134;28;20214;-81
2023/06/27 04:29:46;;;;;;;2.80;2.00;;;;;;;;;;5031865;28;20234;-81
2023/06/27 04:32:13;;;;;;;4.17;2.20;;;;;;;;;;5032106;28;20238;-81
2023/06/27 04:34:41;;;;;;;3.13;2.00;;;;;;;;;;5031497;28;20238;-81
2023/06/27 04:37:08;;;;;;;2.93;1.80;;;;;;;;;;5032236;28;20207;-81
2023/06/27 04:39:36;;;;;;;2.13;1.90;;;;;;;;;;5031546;28;20234;-81
2023/06/27 04:42:03;;;;;;;3.40;1.70;;;;;;;;;;5031862;28;20234;-81
2023/06/27 04:44:30;;;;;;;1.93;1.73;;;;;;;;;;5031640;28;20346;-81
2023/06/27 04:46:57;;;;;;;3.77;2.10;;;;;;;;;;5031872;28;20685;-81
2023/06/27 04:49:24;;;;;;;2.00;1.70;;;;;;;;;;5031364;28;20238;-81
2023/06/27 04:51:52;;;;;;;3.53;2.13;;;;;;;;;;5031604;28;20288;-81
2023/06/27 04:54:20;;;;;;;2.43;1.80;;;;;;;;;;5031246;28;20241;-81
2023/06/27 04:56:47;;;;;;;4.63;2.10;;;;;;;;;;5031780;28;20588;-81
2023/06/27 04:59:14;;;;;;;1.97;1.87;;;;;;;;;;5031373;28;20621;-81
2023/06/27 05:01:41;;;;;;;4.10;2.00;;;;;;;;;;5031782;28;20294;-81
2023/06/27 05:04:08;;;;;;;6.23;2.33;;;;;;;;;;5031245;28;20277;-81
2023/06/27 05:06:35;;;;;;;7.30;1.80;;;;;;;;;;5031387;28;20211;-81
2023/06/27 05:09:04;;;;;;;4.10;2.20;;;;;;;;;;5031749;28;20238;-84
2023/06/27 05:11:31;;;;;;;2.93;1.70;;;;;;;;;;5031923;28;20347;-82
2023/06/27 05:13:58;;;;;;;3.10;1.60;;;;;;;;;;5031183;28;20238;-82
2023/06/27 05:16:26;;;;;;;2.97;2.10;;;;;;;;;;5031514;28;20211;-82
2023/06/27 05:18:54;;;;;;;4.27;1.93;;;;;;;;;;5034238;28;20238;-82
2023/06/27 05:21:21;;;;;;;3.10;2.13;;;;;;;;;;5035713;28;20202;-82
2023/06/27 05:23:49;;;;;;;4.13;2.00;;;;;;;;;;5035215;28;20241;-82
2023/06/27 05:26:17;;;;;;;4.67;2.20;;;;;;;;;;5035664;28;20210;-82
2023/06/27 05:28:44;;;;;;;2.87;1.70;;;;;;;;;;5035023;28;20270;-83
2023/06/27 05:31:11;;;;;;;2.20;1.90;;;;;;;;;;5035388;28;20222;-82
2023/06/27 05:33:38;;;;;;;4.07;2.10;;;;;;;;;;5034823;28;20254;-82
2023/06/27 05:36:05;;;;;;;4.77;1.83;;;;;;;;;;5035467;28;20688;-81
2023/06/27 05:38:32;;;;;;;2.33;2.10;;;;;;;;;;5034732;28;20704;-82
2023/06/27 05:40:59;;;;;;;4.70;1.90;;;;;;;;;;5035581;28;20209;-82
2023/06/27 05:43:28;;;;;;;2.80;1.83;;;;;;;;;;5034656;28;20231;-81
2023/06/27 05:45:55;;;;;;;2.67;2.10;;;;;;;;;;5035322;28;20636;-82
2023/06/27 05:48:22;;;;;;;2.47;2.00;;;;;;;;;;5034792;28;20250;-82
2023/06/27 05:50:49;;;;;;;3.57;1.87;;;;;;;;;;5034927;28;20577;-82
2023/06/27 05:53:16;;;;;;;5.87;2.20;;;;;;;;;;5034639;28;20231;-83
2023/06/27 05:55:43;;;;;;;2.57;2.13;;;;;;;;;;5035245;28;20237;-82
2023/06/27 05:58:10;;;;;;;4.77;1.90;;;;;;;;;;5034360;28;20672;-83
2023/06/27 06:00:39;;;;;;;4.13;1.90;;;;;;;;;;5043755;28;20289;-83
2023/06/27 06:03:06;;;;;;;2.60;2.00;;;;;;;;;;5054381;28;20257;-82
2023/06/27 06:05:33;;;;;;;6.10;2.10;;;;;;;;;;5055077;28;20217;-82
2023/06/27 06:08:00;;;;;;;3.47;2.17;;;;;;;;;;5054609;28;20205;-83
2023/06/27 06:10:27;;;;;;;2.23;2.03;;;;;;;;;;5054519;28;20222;-83
2023/06/27 06:12:54;;;;;;;4.47;2.33;;;;;;;;;;5054905;28;20226;-83
2023/06/27 06:15:21;;;;;;;4.20;2.10;;;;;;;;;;5054317;28;20234;-83
2023/06/27 06:17:49;;;;;;;6.37;2.80;;;;;;;;;;5054456;28;20220;-83
2023/06/27 06:20:16;;;;;;;3.77;2.27;;;;;;;;;;5054033;28;20643;-83
2023/06/27 06:22:44;;;;;;;3.10;2.27;;;;;;;;;;5054453;28;20218;-83
2023/06/27 06:25:11;;;;;;;4.43;2.10;;;;;;;;;;5054029;28;20233;-83
2023/06/27 06:27:38;;;;;;;3.88;2.28;;;;;;;;;;5054299;28;20198;-83
2023/06/27 06:30:05;;;;;;;2.45;2.17;;;;;;;;;;5053777;28;20238;-82
2023/06/27 06:32:32;;;;;;;5.15;2.15;;;;;;;;;;5053780;28;20241;-82
2023/06/27 06:35:00;;;;;;;2.92;1.88;;;;;;;;;;5053810;28;20234;-82
2023/06/27 06:37:27;;;;;;;3.70;1.65;;;;;;;;;;5054002;28;20210;-83
2023/06/27 06:39:54;;;;;;;3.05;1.65;;;;;;;;;;5053801;28;20238;-82
2023/06/27 06:42:21;;;;;;;3.03;1.73;;;;;;;;;;5054110;28;20225;-82
2023/06/27 06:44:49;;;;;;;3.60;2.00;;;;;;;;;;5053654;28;20241;-82
2023/06/27 06:47:16;;;;;;;3.90;1.85;;;;;;;;;;5053891;28;20206;-82
2023/06/27 06:49:43;;;;;;;2.03;1.50;;;;;;;;;;5053773;28;20279;-82
2023/06/27 06:52:12;;;;;;;2.65;2.00;;;;;;;;;;5053804;28;20226;-82
2023/06/27 06:54:39;;;;;;;3.08;1.70;;;;;;;;;;5053365;28;20244;-82
2023/06/27 06:57:06;;;;;;;3.47;1.88;;;;;;;;;;5053794;28;20214;-81
2023/06/27 06:59:33;;;;;;;2.78;1.60;;;;;;;;;;5053484;28;20309;-82
2023/06/27 07:02:00;;;;;;;3.42;1.58;;;;;;;;;;5054048;28;20222;-82
2023/06/27 07:04:27;;;;;;;1.92;1.70;;;;;;;;;;5053225;28;20262;-83
2023/06/27 07:06:55;;;;;;;3.60;1.77;;;;;;;;;;5053566;28;20672;-81
2023/06/27 07:09:23;;;;;;;2.38;1.80;;;;;;;;;;5053298;28;20627;-82
2023/06/27 07:11:51;;;;;;;3.65;1.55;;;;;;;;;;5053699;28;20253;-82
2023/06/27 07:14:18;;;;;;;2.45;1.55;;;;;;;;;;5053114;28;20321;-82
2023/06/27 07:16:45;;;;;;;2.75;1.50;;;;;;;;;;5053726;28;20237;-82
2023/06/27 07:19:12;;;;;;;4.07;1.90;;;;;;;;;;5053099;28;20237;-82
2023/06/27 07:21:39;;;;;;;1.95;1.27;;;;;;;;;;5053675;28;20213;-82
2023/06/27 07:24:08;;;;;;;3.40;1.55;;;;;;;;;;5052963;28;20240;-82
2023/06/27 07:26:36;;;;;;;2.85;1.52;;;;;;;;;;5053304;28;20254;-82
2023/06/27 07:29:03;;;;;;;2.33;1.73;;;;;;;;;;5053036;28;20229;-82
2023/06/27 07:31:30;;;;;;;2.28;1.48;;;;;;;;;;5053429;28;20236;-83
2023/06/27 07:33:57;;;;;;;4.70;1.73;;;;;;;;;;5052701;28;20237;-81
2023/06/27 07:36:24;;;;;;;1.70;1.30;;;;;;;;;;5052930;28;20206;-82
2023/06/27 07:38:52;;;;;;;2.13;1.50;;;;;;;;;;5052833;28;20237;-83
2023/06/27 07:41:19;;;;;;;2.17;1.50;;;;;;;;;;5052472;28;20676;-82
2023/06/27 07:43:47;;;;;;;2.53;1.30;;;;;;;;;;5052323;28;20246;-81
2023/06/27 07:46:14;;;;;;;5.35;1.52;;;;;;;;;;5052985;28;20215;-81
2023/06/27 07:48:41;;;;;;;4.72;1.73;;;;;;;;;;5052292;28;20284;-81
2023/06/27 07:51:09;;;;;;;2.53;1.40;;;;;;;;;;5053010;28;20742;-82
2023/06/27 07:53:36;;;;;;;2.20;1.33;;;;;;;;;;5052304;28;20248;-82
2023/06/27 07:56:03;;;;;;;1.55;1.15;;;;;;;;;;5053120;28;20210;-82
2023/06/27 07:58:30;;;;;;;2.15;1.50;;;;;;;;;;5052160;28;20608;-85
2023/06/27 08:00:58;;;;;;;4.53;1.60;;;;;;;;;;5053253;28;20708;-87
2023/06/27 08:03:26;;;;;;;3.30;2.38;;;;;;;;;;5052641;28;20610;-87
2023/06/27 08:05:53;;;;;;;3.15;1.70;;;;;;;;;;5053609;28;20206;-87
2023/06/27 08:08:20;;;;;;;5.38;1.80;;;;;;;;;;5052236;28;20569;-86
2023/06/27 08:10:48;;;;;;;4.13;1.60;;;;;;;;;;5053611;28;20571;-83
2023/06/27 08:13:15;;;;;;;3.10;1.50;;;;;;;;;;5051812;28;20648;-83
2023/06/27 08:15:42;;;;;;;3.28;1.50;;;;;;;;;;5052354;28;20217;-83
2023/06/27 08:18:10;;;;;;;3.38;1.40;;;;;;;;;;5051911;28;20213;-82
2023/06/27 08:20:37;;;;;;;3.55;1.60;;;;;;;;;;5052665;28;20206;-83
2023/06/27 08:23:05;;;;;;;1.67;1.25;;;;;;;;;;5051807;28;20226;-83
2023/06/27 08:25:32;;;;;;;4.43;1.48;;;;;;;;;;5052342;28;20208;-82
2023/06/27 08:27:59;;;;;;;4.55;1.85;;;;;;;;;;5052293;28;20217;-82
2023/06/27 08:30:28;;;;;;;2.35;1.50;;;;;;;;;;5051636;28;20242;-82
2023/06/27 08:32:56;;;;;;;2.10;1.40;;;;;;;;;;5051948;28;20236;-81
2023/06/27 08:35:24;;;;;;;2.28;1.70;;;;;;;;;;5051403;28;20641;-80
2023/06/27 08:37:51;;;;;;;5.32;1.60;;;;;;;;;;5051993;28;20205;-81
2023/06/27 08:40:20;;;;;;;5.80;1.42;;;;;;;;;;5051662;28;20316;-81
2023/06/27 08:42:48;;;;;;;2.42;1.45;;;;;;;;;;5052129;28;20321;-82
2023/06/27 08:45:15;;;;;;;2.45;1.20;;;;;;;;;;5051464;28;20237;-82
2023/06/27 08:47:44;;;;;;;4.57;1.42;;;;;;;;;;5051856;28;20639;-82
2023/06/27 08:50:13;;;;;;;2.75;1.38;;;;;;;;;;5051514;28;20226;-82
2023/06/27 08:52:44;;;;;;;3.38;1.48;;;;;;;;;;5051623;28;20233;-83
2023/06/27 08:55:14;;;;;;;3.38;1.40;;;;;;;;;;5051516;28;20233;-82
2023/06/27 08:57:42;;;;;;;4.22;1.40;;;;;;;;;;5051845;28;20210;-82
2023/06/27 09:00:12;;;;;;;2.97;1.30;;;;;;;;;;5051342;28;20244;-83
2023/06/27 09:02:39;;;;;;;3.72;1.50;;;;;;;;;;5051441;28;20655;-82
2023/06/27 09:05:07;;;;;;;2.47;1.58;;;;;;;;;;5051293;28;20245;-82
2023/06/27 09:07:34;;;;;;;3.03;1.52;;;;;;;;;;5051546;28;20213;-82
2023/06/27 09:10:03;;;;;;;3.30;1.33;;;;;;;;;;5051246;28;20234;-82
2023/06/27 09:12:31;;;;;;;4.00;1.30;;;;;;;;;;5051501;28;20226;-81
2023/06/27 09:14:58;;;;;;;2.55;1.35;;;;;;;;;;5051301;28;20288;-82
2023/06/27 09:17:25;;;;;;;3.35;1.52;;;;;;;;;;5051359;28;20218;-82
2023/06/27 09:19:52;;;;;;;4.75;1.60;;;;;;;;;;5051263;28;20233;-82
2023/06/27 09:22:19;;;;;;;7.97;1.75;;;;;;;;;;5051717;28;20235;-81
2023/06/27 09:24:47;;;;;;;3.53;1.15;;;;;;;;;;5051160;28;20240;-82
2023/06/27 09:27:30;;;;;;;3.28;1.30;;;;;;;;;;5051376;28;20198;-82
2023/06/27 09:30:02;;;;;;;3.58;1.50;;;;;;;;;;5049027;28;20241;-82
2023/06/27 09:32:29;;;;;;;1.38;1.15;;;;;;;;;;5051628;28;20232;-82
2023/06/27 09:34:57;;;;;;;3.92;1.00;;;;;;;;;;5050929;28;20240;-81
2023/06/27 09:37:29;;;;;;;8.18;1.85;;;;;;;;;;5051021;28;20202;-82
2023/06/27 09:39:57;;;;;;;3.97;1.58;;;;;;;;;;5051327;28;20295;-82
2023/06/27 09:42:24;;;;;;;3.80;1.67;;;;;;;;;;5051681;28;20237;-82
2023/06/27 09:44:51;;;;;;;2.15;1.30;;;;;;;;;;5050803;28;20245;-82
2023/06/27 09:47:19;;;;;;;1.73;1.17;;;;;;;;;;5051190;28;20213;-82
2023/06/27 09:49:48;;;;;;;3.08;1.38;;;;;;;;;;5050787;28;20234;-82
2023/06/27 09:52:15;;;;;;;4.82;1.63;;;;;;;;;;5051135;28;20236;-83
2023/06/27 09:54:43;;;;;;;4.05;1.17;;;;;;;;;;5050715;28;20237;-83
2023/06/27 09:57:13;;;;;;;5.15;1.40;;;;;;;;;;5051006;28;20201;-84
2023/06/27 09:59:40;;;;;;;1.30;1.20;;;;;;;;;;5050742;28;20262;-83
2023/06/27 10:02:12;;;;;;;3.47;1.30;;;;;;;;;;5051146;28;20225;-81
2023/06/27 10:04:41;;;;;;;2.72;1.25;;;;;;;;;;5053234;28;20880;-81
2023/06/27 10:07:09;;;;;;;6.88;1.20;;;;;;;;;;5054554;28;20688;-82
2023/06/27 10:09:37;;;;;;;2.25;1.40;;;;;;;;;;5054264;28;20295;-82
2023/06/27 10:12:04;;;;;;;1.23;1.10;;;;;;;;;;5054865;28;20230;-82
2023/06/27 10:14:32;;;;;;;1.45;1.20;;;;;;;;;;5054234;28;20234;-81
2023/06/27 10:17:00;;;;;;;4.60;1.17;;;;;;;;;;5054400;28;20210;-81
2023/06/27 10:19:28;;;;;;;3.92;1.23;;;;;;;;;;5054353;28;20241;-81
2023/06/27 10:21:56;;;;;;;3.72;1.38;;;;;;;;;;5054941;28;20229;-80
2023/06/27 10:24:24;;;;;;;1.60;1.20;;;;;;;;;;5053979;28;20237;-81
2023/06/27 10:26:51;;;;;;;2.58;1.40;;;;;;;;;;5054443;28;20217;-80
2023/06/27 10:29:18;;;;;;;4.03;1.33;;;;;;;;;;5053959;28;20287;-81
2023/06/27 10:31:46;;;;;;;5.22;1.45;;;;;;;;;;5053998;28;20206;-79
2023/06/27 10:34:18;;;;;;;5.35;1.45;;;;;;;;;;5053676;28;20284;-80
2023/06/27 10:37:06;;;;;;;3.05;1.40;;;;;;;;;;5054281;28;20664;-82
2023/06/27 10:39:36;;;;;;;7.13;1.92;;;;;;;;;;5047311;28;20237;-82
2023/06/27 10:42:04;;;;;;;4.38;1.40;;;;;;;;;;5054344;28;20283;-82
2023/06/27 10:44:31;;;;;;;1.38;1.20;;;;;;;;;;5053636;28;20257;-82
2023/06/27 10:47:17;;;;;;;3.25;1.23;;;;;;;;;;5053862;28;20225;-82
2023/06/27 10:49:47;;;;;;;3.83;1.63;;;;;;;;;;5053499;28;20241;-81
2023/06/27 10:52:20;;;;;;;6.30;1.30;;;;;;;;;;5054000;28;20688;-81
2023/06/27 10:55:09;;;;;;;5.28;1.20;;;;;;;;;;5053496;28;20242;-80
2023/06/27 10:57:39;;;;;;;1.90;1.40;;;;;;;;;;5053392;28;20575;-83
2023/06/27 11:00:16;;;;;;;2.08;1.35;;;;;;;;;;5053673;28;20690;-82
2023/06/27 11:02:43;;;;;;;3.25;1.50;;;;;;;;;;5053631;28;20232;-82
2023/06/27 11:05:15;;;;;;;4.40;1.48;;;;;;;;;;5053269;28;20295;-80
2023/06/27 11:07:52;;;;;;;2.72;1.35;;;;;;;;;;5053546;28;20217;-80
2023/06/27 11:10:24;;;;;;;2.45;1.40;;;;;;;;;;5053181;28;20707;-80
2023/06/27 11:12:51;;;;;;;1.45;1.27;;;;;;;;;;5053566;28;20233;-80
2023/06/27 11:15:19;;;;;;;5.53;1.83;;;;;;;;;;5051975;28;20604;-81
2023/06/27 11:17:46;;;;;;;2.65;1.25;;;;;;;;;;5053393;28;20713;-82
2023/06/27 11:20:13;;;;;;;1.67;1.30;;;;;;;;;;5053109;28;20257;-81
2023/06/27 11:22:40;;;;;;;3.63;1.50;;;;;;;;;;5053565;28;20228;-81
2023/06/27 11:25:14;;;;;;;2.58;1.33;;;;;;;;;;5052824;28;20646;-82
2023/06/27 11:27:43;;;;;;;3.33;1.35;;;;;;;;;;5053374;28;20198;-82
2023/06/27 11:30:10;;;;;;;5.35;1.50;;;;;;;;;;5052808;28;20596;-81
2023/06/27 11:32:37;;;;;;;3.13;1.40;;;;;;;;;;5052732;28;20234;-82
2023/06/27 11:35:06;;;;;;;3.42;1.33;;;;;;;;;;5052872;28;20233;-81
2023/06/27 11:37:34;;;;;;;10.13;1.80;;;;;;;;;;5052767;28;20209;-80
2023/06/27 11:40:07;;;;;;;5.28;1.65;;;;;;;;;;5052581;28;20241;-81
2023/06/27 11:42:35;;;;;;;2.72;1.20;;;;;;;;;;5052932;28;20313;-81
2023/06/27 11:45:05;;;;;;;3.72;1.25;;;;;;;;;;5052452;28;20316;-80
2023/06/27 11:47:32;;;;;;;2.78;1.40;;;;;;;;;;5052697;28;20213;-81
2023/06/27 11:50:06;;;;;;;3.42;1.50;;;;;;;;;;5052443;28;20238;-82
2023/06/27 11:52:35;;;;;;;2.58;1.40;;;;;;;;;;5052698;28;20232;-80
2023/06/27 11:55:03;;;;;;;3.42;1.05;;;;;;;;;;5052382;28;20241;-81
2023/06/27 11:57:41;;;;;;;4.38;1.40;;;;;;;;;;5052559;28;20616;-82
2023/06/27 12:00:13;;;;;;;2.72;1.27;;;;;;;;;;5047660;28;20233;-83
2023/06/27 12:02:40;;;;;;;6.15;1.70;;;;;;;;;;5032614;28;20227;-82
2023/06/27 12:05:13;;;;;;;3.65;1.40;;;;;;;;;;5032268;28;20230;-82
2023/06/27 12:07:40;;;;;;;5.20;1.10;;;;;;;;;;5032527;28;20603;-82
2023/06/27 12:10:08;;;;;;;1.98;0.93;;;;;;;;;;5032229;28;20234;-81
2023/06/27 12:12:35;;;;;;;2.95;1.70;;;;;;;;;;5032426;28;20233;-81
2023/06/27 12:15:14;;;;;;;4.57;1.38;;;;;;;;;;5032147;28;20230;-82
2023/06/27 12:17:55;;;;;;;2.85;1.73;;;;;;;;;;5032212;28;20202;-82
2023/06/27 12:20:22;;;;;;;6.90;1.30;;;;;;;;;;5031953;28;20238;-82
2023/06/27 12:22:49;;;;;;;1.92;1.25;;;;;;;;;;5032240;28;20727;-81
2023/06/27 12:25:16;;;;;;;10.73;1.95;;;;;;;;;;5031677;28;20241;-82
2023/06/27 12:27:43;;;;;;;1.30;1.20;;;;;;;;;;5031775;28;20209;-82
2023/06/27 12:30:12;;;;;;;4.45;2.40;;;;;;;;;;5031653;28;20606;-81
2023/06/27 12:32:40;;;;;;;6.68;1.58;;;;;;;;;;5032117;28;20242;-82
2023/06/27 12:35:08;;;;;;;4.90;1.27;;;;;;;;;;5031537;28;20622;-83
2023/06/27 12:37:35;;;;;;;3.03;1.52;;;;;;;;;;5032113;28;20604;-82
2023/06/27 12:40:02;;;;;;;2.20;1.23;;;;;;;;;;5031586;28;20234;-81
2023/06/27 12:42:29;;;;;;;4.88;2.05;;;;;;;;;;5032139;28;20230;-82
2023/06/27 12:44:58;;;;;;;2.22;1.05;;;;;;;;;;5031707;28;20304;-82
2023/06/27 12:47:25;;;;;;;3.20;1.20;;;;;;;;;;5031715;28;20587;-82
2023/06/27 12:49:54;;;;;;;2.65;1.52;;;;;;;;;;5031607;28;20626;-82
2023/06/27 12:52:21;;;;;;;1.83;1.38;;;;;;;;;;5031819;28;20222;-82
2023/06/27 12:54:48;;;;;;;3.65;1.55;;;;;;;;;;5031386;28;20242;-81
2023/06/27 12:57:15;;;;;;;3.60;1.25;;;;;;;;;;5031660;28;20210;-82
2023/06/27 12:59:42;;;;;;;5.35;1.40;;;;;;;;;;5031443;28;20234;-82
2023/06/27 13:02:12;;;;;;;4.78;1.30;;;;;;;;;;5031810;28;20223;-82
2023/06/27 13:04:39;;;;;;;5.78;1.98;;;;;;;;;;5031513;28;20242;-80
2023/06/27 13:07:07;;;;;;;3.30;1.20;;;;;;;;;;5031556;28;20213;-82
2023/06/27 13:09:35;;;;;;;2.97;1.40;;;;;;;;;;5031053;28;20238;-81
2023/06/27 13:12:02;;;;;;;3.08;1.30;;;;;;;;;;5031689;28;20229;-82
2023/06/27 13:14:29;;;;;;;3.17;1.45;;;;;;;;;;5031165;28;20660;-82
2023/06/27 13:16:57;;;;;;;1.92;1.30;;;;;;;;;;5031473;28;20202;-81
2023/06/27 13:19:24;;;;;;;2.78;1.48;;;;;;;;;;5031156;28;20235;-82
2023/06/27 13:21:52;;;;;;;2.00;1.17;;;;;;;;;;5031754;28;20232;-80
2023/06/27 13:24:21;;;;;;;1.55;1.42;;;;;;;;;;5031150;28;20263;-81
2023/06/27 13:26:48;;;;;;;1.52;1.40;;;;;;;;;;5031286;28;20237;-80
2023/06/27 13:29:15;;;;;;;3.03;1.50;;;;;;;;;;5031056;28;20245;-81
2023/06/27 13:31:42;;;;;;;6.32;1.30;;;;;;;;;;5031804;28;20321;-82
2023/06/27 13:34:10;;;;;;;2.15;1.40;;;;;;;;;;5030923;28;20294;-81
2023/06/27 13:36:37;;;;;;;14.52;1.73;;;;;;;;;;5031340;28;20215;-82
2023/06/27 13:39:04;;;;;;;1.40;1.17;;;;;;;;;;5032702;28;20230;-82
2023/06/27 13:41:33;;;;;;;2.85;1.17;;;;;;;;;;5035581;28;20289;-82
2023/06/27 13:44:00;;;;;;;2.45;1.35;;;;;;;;;;5034941;28;20716;-83
2023/06/27 13:46:27;;;;;;;4.85;1.42;;;;;;;;;;5035535;28;20602;-82
2023/06/27 13:48:55;;;;;;;4.55;1.27;;;;;;;;;;5034781;28;20241;-83
2023/06/27 13:51:22;;;;;;;2.25;1.30;;;;;;;;;;5035152;28;20665;-81
2023/06/27 13:53:49;;;;;;;3.05;1.60;;;;;;;;;;5034629;28;20262;-82
2023/06/27 13:56:17;;;;;;;6.57;1.50;;;;;;;;;;5035091;28;20218;-83
2023/06/27 13:58:45;;;;;;;2.25;1.20;;;;;;;;;;5034751;28;20241;-82
2023/06/27 14:01:13;;;;;;;3.90;1.35;;;;;;;;;;5048374;28;20206;-81
2023/06/27 14:03:40;;;;;;;5.80;1.10;;;;;;;;;;5054611;28;20747;-80
2023/06/27 14:06:07;;;;;;;7.05;1.50;;;;;;;;;;5055160;28;20212;-80
2023/06/27 14:08:34;;;;;;;4.50;1.88;;;;;;;;;;5054080;28;20234;-82
2023/06/27 14:11:01;;;;;;;1.60;1.30;;;;;;;;;;5054865;28;20206;-80
2023/06/27 14:13:28;;;;;;;3.92;1.52;;;;;;;;;;5054371;28;20241;-82
2023/06/27 14:15:58;;;;;;;4.15;1.40;;;;;;;;;;5054977;28;20194;-82
2023/06/27 14:18:25;;;;;;;4.38;1.33;;;;;;;;;;5054305;28;20592;-82
2023/06/27 14:20:52;;;;;;;1.73;1.30;;;;;;;;;;5054583;28;20623;-81
2023/06/27 14:23:21;;;;;;;1.70;1.30;;;;;;;;;;5054150;28;20229;-82
2023/06/27 14:25:48;;;;;;;3.13;1.45;;;;;;;;;;5054530;28;20249;-82
2023/06/27 14:28:17;;;;;;;3.00;1.27;;;;;;;;;;5053819;28;20201;-82
2023/06/27 14:30:44;;;;;;;9.02;1.63;;;;;;;;;;5054457;28;20300;-82
2023/06/27 14:33:16;;;;;;;4.22;1.15;;;;;;;;;;5053875;28;20242;-83
2023/06/27 14:35:43;;;;;;;3.63;1.33;;;;;;;;;;5054341;28;20206;-81
2023/06/27 14:38:10;;;;;;;2.92;1.10;;;;;;;;;;5053653;28;20225;-82
2023/06/27 14:40:37;;;;;;;3.10;1.33;;;;;;;;;;5053961;28;20226;-82
2023/06/27 14:43:04;;;;;;;1.83;1.05;;;;;;;;;;5053775;28;20226;-82
2023/06/27 14:45:31;;;;;;;1.98;1.13;;;;;;;;;;5054197;28;20206;-82
2023/06/27 14:47:58;;;;;;;5.45;1.65;;;;;;;;;;5053850;28;20210;-82